sensor_id;sensor_type;location;lat;lon;timestamp;P1;durP1;ratioP1;P2;durP2;ratioP2
21754;SDS011;11039;50.028;19.938;2022-10-15T00:02:12;12.43;;;8.52;;
21754;SDS011;11039;50.028;19.938;2022-10-15T00:04:38;13.45;;;8.68;;
21754;SDS011;11039;50.028;19.938;2022-10-15T00:07:04;12.73;;;8.88;;
21754;SDS011;11039;50.028;19.938;2022-10-15T00:09:30;13.00;;;8.82;;
21754;SDS011;11039;50.028;19.938;2022-10-15T00:11:56;12.90;;;9.05;;
21754;SDS011;11039;50.028;19.938;2022-10-15T00:14:22;13.93;;;9.45;;
21754;SDS011;11039;50.028;19.938;2022-10-15T00:16:48;13.02;;;8.60;;
21754;SDS011;11039;50.028;19.938;2022-10-15T00:19:14;12.02;;;8.50;;
21754;SDS011;11039;50.028;19.938;2022-10-15T00:21:41;11.38;;;8.45;;
21754;SDS011;11039;50.028;19.938;2022-10-15T00:24:07;12.55;;;8.57;;
21754;SDS011;11039;50.028;19.938;2022-10-15T00:26:33;13.13;;;9.13;;
21754;SDS011;11039;50.028;19.938;2022-10-15T00:29:00;12.40;;;9.00;;
21754;SDS011;11039;50.028;19.938;2022-10-15T00:31:26;12.63;;;9.00;;
21754;SDS011;11039;50.028;19.938;2022-10-15T00:33:54;14.30;;;9.40;;
21754;SDS011;11039;50.028;19.938;2022-10-15T00:36:22;13.90;;;9.07;;
21754;SDS011;11039;50.028;19.938;2022-10-15T00:38:48;13.43;;;9.00;;
21754;SDS011;11039;50.028;19.938;2022-10-15T00:41:16;12.93;;;8.90;;
21754;SDS011;11039;50.028;19.938;2022-10-15T00:43:44;11.82;;;8.52;;
21754;SDS011;11039;50.028;19.938;2022-10-15T00:46:33;11.27;;;9.02;;
21754;SDS011;11039;50.028;19.938;2022-10-15T00:49:19;13.05;;;8.73;;
21754;SDS011;11039;50.028;19.938;2022-10-15T00:51:44;12.98;;;8.93;;
21754;SDS011;11039;50.028;19.938;2022-10-15T00:54:12;11.77;;;8.30;;
21754;SDS011;11039;50.028;19.938;2022-10-15T00:56:40;13.85;;;8.77;;
21754;SDS011;11039;50.028;19.938;2022-10-15T00:59:08;13.98;;;9.23;;
21754;SDS011;11039;50.028;19.938;2022-10-15T01:01:34;12.77;;;8.80;;
21754;SDS011;11039;50.028;19.938;2022-10-15T01:04:00;11.27;;;8.13;;
21754;SDS011;11039;50.028;19.938;2022-10-15T01:06:27;11.65;;;8.38;;
21754;SDS011;11039;50.028;19.938;2022-10-15T01:08:53;12.80;;;8.65;;
21754;SDS011;11039;50.028;19.938;2022-10-15T01:11:39;12.15;;;8.77;;
21754;SDS011;11039;50.028;19.938;2022-10-15T01:14:33;11.40;;;8.18;;
21754;SDS011;11039;50.028;19.938;2022-10-15T01:20:02;13.45;;;9.27;;
21754;SDS011;11039;50.028;19.938;2022-10-15T01:27:42;10.93;;;8.77;;
21754;SDS011;11039;50.028;19.938;2022-10-15T01:32:46;12.02;;;9.15;;
21754;SDS011;11039;50.028;19.938;2022-10-15T01:35:35;12.48;;;9.20;;
21754;SDS011;11039;50.028;19.938;2022-10-15T01:40:52;14.63;;;8.88;;
21754;SDS011;11039;50.028;19.938;2022-10-15T01:43:21;12.93;;;8.88;;
21754;SDS011;11039;50.028;19.938;2022-10-15T01:45:51;11.60;;;8.30;;
21754;SDS011;11039;50.028;19.938;2022-10-15T01:48:18;12.68;;;8.68;;
21754;SDS011;11039;50.028;19.938;2022-10-15T01:50:45;13.77;;;8.82;;
21754;SDS011;11039;50.028;19.938;2022-10-15T01:53:16;12.60;;;8.45;;
21754;SDS011;11039;50.028;19.938;2022-10-15T01:55:43;12.95;;;9.35;;
21754;SDS011;11039;50.028;19.938;2022-10-15T01:58:10;12.27;;;8.35;;
21754;SDS011;11039;50.028;19.938;2022-10-15T02:00:38;13.98;;;9.25;;
21754;SDS011;11039;50.028;19.938;2022-10-15T02:03:04;13.88;;;8.88;;
21754;SDS011;11039;50.028;19.938;2022-10-15T02:06:17;12.20;;;8.40;;
21754;SDS011;11039;50.028;19.938;2022-10-15T02:11:13;13.02;;;8.93;;
21754;SDS011;11039;50.028;19.938;2022-10-15T02:16:27;11.77;;;8.82;;
21754;SDS011;11039;50.028;19.938;2022-10-15T02:21:21;13.10;;;9.20;;
21754;SDS011;11039;50.028;19.938;2022-10-15T02:26:15;14.20;;;9.05;;
21754;SDS011;11039;50.028;19.938;2022-10-15T02:28:43;14.57;;;9.43;;
21754;SDS011;11039;50.028;19.938;2022-10-15T02:31:09;12.85;;;9.10;;
21754;SDS011;11039;50.028;19.938;2022-10-15T02:33:37;12.13;;;8.77;;
21754;SDS011;11039;50.028;19.938;2022-10-15T02:36:03;12.98;;;9.48;;
21754;SDS011;11039;50.028;19.938;2022-10-15T02:38:30;12.95;;;8.55;;
21754;SDS011;11039;50.028;19.938;2022-10-15T02:40:58;12.82;;;8.80;;
21754;SDS011;11039;50.028;19.938;2022-10-15T02:43:25;13.65;;;8.98;;
21754;SDS011;11039;50.028;19.938;2022-10-15T02:45:51;14.35;;;9.27;;
21754;SDS011;11039;50.028;19.938;2022-10-15T02:48:17;11.73;;;8.98;;
21754;SDS011;11039;50.028;19.938;2022-10-15T02:50:43;13.57;;;9.02;;
21754;SDS011;11039;50.028;19.938;2022-10-15T02:53:09;13.45;;;8.75;;
21754;SDS011;11039;50.028;19.938;2022-10-15T02:55:35;12.38;;;9.25;;
21754;SDS011;11039;50.028;19.938;2022-10-15T02:58:02;12.45;;;8.40;;
21754;SDS011;11039;50.028;19.938;2022-10-15T03:00:28;13.93;;;9.55;;
21754;SDS011;11039;50.028;19.938;2022-10-15T03:02:54;13.57;;;8.85;;
21754;SDS011;11039;50.028;19.938;2022-10-15T03:05:20;12.85;;;9.45;;
21754;SDS011;11039;50.028;19.938;2022-10-15T03:07:46;14.10;;;8.70;;
21754;SDS011;11039;50.028;19.938;2022-10-15T03:10:12;14.38;;;9.70;;
21754;SDS011;11039;50.028;19.938;2022-10-15T03:12:38;12.95;;;9.75;;
21754;SDS011;11039;50.028;19.938;2022-10-15T03:15:06;13.40;;;9.20;;
21754;SDS011;11039;50.028;19.938;2022-10-15T03:17:32;12.75;;;8.90;;
21754;SDS011;11039;50.028;19.938;2022-10-15T03:19:58;13.50;;;9.00;;
21754;SDS011;11039;50.028;19.938;2022-10-15T03:22:24;14.82;;;9.73;;
21754;SDS011;11039;50.028;19.938;2022-10-15T03:24:50;12.82;;;9.35;;
21754;SDS011;11039;50.028;19.938;2022-10-15T03:27:17;13.10;;;9.10;;
21754;SDS011;11039;50.028;19.938;2022-10-15T03:29:43;12.55;;;9.30;;
21754;SDS011;11039;50.028;19.938;2022-10-15T03:32:09;14.52;;;9.30;;
21754;SDS011;11039;50.028;19.938;2022-10-15T03:34:35;13.18;;;9.50;;
21754;SDS011;11039;50.028;19.938;2022-10-15T03:37:01;14.40;;;9.63;;
21754;SDS011;11039;50.028;19.938;2022-10-15T03:39:27;14.20;;;9.80;;
21754;SDS011;11039;50.028;19.938;2022-10-15T03:41:53;13.55;;;9.25;;
21754;SDS011;11039;50.028;19.938;2022-10-15T03:44:19;13.20;;;9.48;;
21754;SDS011;11039;50.028;19.938;2022-10-15T03:46:45;11.90;;;8.55;;
21754;SDS011;11039;50.028;19.938;2022-10-15T03:49:12;13.82;;;9.20;;
21754;SDS011;11039;50.028;19.938;2022-10-15T03:51:38;14.60;;;9.35;;
21754;SDS011;11039;50.028;19.938;2022-10-15T03:54:04;12.68;;;9.20;;
21754;SDS011;11039;50.028;19.938;2022-10-15T03:56:30;13.60;;;9.45;;
21754;SDS011;11039;50.028;19.938;2022-10-15T03:58:56;13.50;;;9.23;;
21754;SDS011;11039;50.028;19.938;2022-10-15T04:01:22;12.68;;;9.30;;
21754;SDS011;11039;50.028;19.938;2022-10-15T04:03:50;13.13;;;9.32;;
21754;SDS011;11039;50.028;19.938;2022-10-15T04:06:17;13.05;;;9.38;;
21754;SDS011;11039;50.028;19.938;2022-10-15T04:08:43;13.07;;;9.65;;
21754;SDS011;11039;50.028;19.938;2022-10-15T04:11:09;13.77;;;9.07;;
21754;SDS011;11039;50.028;19.938;2022-10-15T04:13:35;13.38;;;9.63;;
21754;SDS011;11039;50.028;19.938;2022-10-15T04:16:04;13.93;;;9.60;;
21754;SDS011;11039;50.028;19.938;2022-10-15T04:18:30;12.05;;;9.20;;
21754;SDS011;11039;50.028;19.938;2022-10-15T04:20:59;13.18;;;9.13;;
21754;SDS011;11039;50.028;19.938;2022-10-15T04:23:26;13.38;;;8.90;;
21754;SDS011;11039;50.028;19.938;2022-10-15T04:25:52;13.15;;;9.18;;
21754;SDS011;11039;50.028;19.938;2022-10-15T04:28:18;13.05;;;8.68;;
21754;SDS011;11039;50.028;19.938;2022-10-15T04:30:44;11.68;;;9.02;;
21754;SDS011;11039;50.028;19.938;2022-10-15T04:33:10;12.85;;;9.23;;
21754;SDS011;11039;50.028;19.938;2022-10-15T04:35:36;13.07;;;8.93;;
21754;SDS011;11039;50.028;19.938;2022-10-15T04:38:03;14.38;;;8.70;;
21754;SDS011;11039;50.028;19.938;2022-10-15T04:40:29;14.00;;;9.65;;
21754;SDS011;11039;50.028;19.938;2022-10-15T04:42:55;14.40;;;9.48;;
21754;SDS011;11039;50.028;19.938;2022-10-15T04:45:21;13.15;;;9.07;;
21754;SDS011;11039;50.028;19.938;2022-10-15T04:47:47;14.15;;;9.15;;
21754;SDS011;11039;50.028;19.938;2022-10-15T04:50:13;14.73;;;10.13;;
21754;SDS011;11039;50.028;19.938;2022-10-15T04:52:39;13.45;;;9.25;;
21754;SDS011;11039;50.028;19.938;2022-10-15T04:55:05;11.35;;;8.77;;
21754;SDS011;11039;50.028;19.938;2022-10-15T04:57:31;13.07;;;9.40;;
21754;SDS011;11039;50.028;19.938;2022-10-15T04:59:57;14.77;;;9.13;;
21754;SDS011;11039;50.028;19.938;2022-10-15T05:02:23;13.73;;;9.63;;
21754;SDS011;11039;50.028;19.938;2022-10-15T05:04:50;13.90;;;10.13;;
21754;SDS011;11039;50.028;19.938;2022-10-15T05:07:16;13.38;;;9.02;;
21754;SDS011;11039;50.028;19.938;2022-10-15T05:09:42;13.70;;;9.55;;
21754;SDS011;11039;50.028;19.938;2022-10-15T05:12:08;14.68;;;9.48;;
21754;SDS011;11039;50.028;19.938;2022-10-15T05:14:34;15.00;;;9.60;;
21754;SDS011;11039;50.028;19.938;2022-10-15T05:17:00;13.75;;;9.45;;
21754;SDS011;11039;50.028;19.938;2022-10-15T05:19:27;16.13;;;8.85;;
21754;SDS011;11039;50.028;19.938;2022-10-15T05:21:53;12.88;;;8.95;;
21754;SDS011;11039;50.028;19.938;2022-10-15T05:24:19;13.05;;;9.02;;
21754;SDS011;11039;50.028;19.938;2022-10-15T05:26:45;11.15;;;8.68;;
21754;SDS011;11039;50.028;19.938;2022-10-15T05:29:11;12.23;;;8.52;;
21754;SDS011;11039;50.028;19.938;2022-10-15T05:31:37;11.70;;;8.50;;
21754;SDS011;11039;50.028;19.938;2022-10-15T05:34:07;15.75;;;8.98;;
21754;SDS011;11039;50.028;19.938;2022-10-15T05:36:33;13.05;;;9.20;;
21754;SDS011;11039;50.028;19.938;2022-10-15T05:39:01;11.93;;;8.88;;
21754;SDS011;11039;50.028;19.938;2022-10-15T05:41:28;11.43;;;8.75;;
21754;SDS011;11039;50.028;19.938;2022-10-15T05:43:55;11.60;;;8.77;;
21754;SDS011;11039;50.028;19.938;2022-10-15T05:46:21;15.27;;;8.75;;
21754;SDS011;11039;50.028;19.938;2022-10-15T05:48:51;12.90;;;8.68;;
21754;SDS011;11039;50.028;19.938;2022-10-15T05:51:17;11.93;;;8.45;;
21754;SDS011;11039;50.028;19.938;2022-10-15T05:53:43;13.10;;;8.98;;
21754;SDS011;11039;50.028;19.938;2022-10-15T05:56:13;12.40;;;8.95;;
21754;SDS011;11039;50.028;19.938;2022-10-15T05:58:39;12.93;;;8.65;;
21754;SDS011;11039;50.028;19.938;2022-10-15T06:01:06;10.07;;;7.80;;
21754;SDS011;11039;50.028;19.938;2022-10-15T06:03:33;12.52;;;8.80;;
21754;SDS011;11039;50.028;19.938;2022-10-15T06:05:59;12.35;;;7.88;;
21754;SDS011;11039;50.028;19.938;2022-10-15T06:08:26;11.55;;;7.80;;
21754;SDS011;11039;50.028;19.938;2022-10-15T06:10:52;12.52;;;8.73;;
21754;SDS011;11039;50.028;19.938;2022-10-15T06:13:19;10.07;;;7.65;;
21754;SDS011;11039;50.028;19.938;2022-10-15T06:15:46;13.25;;;8.48;;
21754;SDS011;11039;50.028;19.938;2022-10-15T06:18:12;12.18;;;8.48;;
21754;SDS011;11039;50.028;19.938;2022-10-15T06:20:40;11.27;;;8.05;;
21754;SDS011;11039;50.028;19.938;2022-10-15T06:23:08;12.90;;;8.05;;
21754;SDS011;11039;50.028;19.938;2022-10-15T06:25:34;12.80;;;8.50;;
21754;SDS011;11039;50.028;19.938;2022-10-15T06:28:00;12.02;;;7.97;;
21754;SDS011;11039;50.028;19.938;2022-10-15T06:30:27;12.10;;;8.35;;
21754;SDS011;11039;50.028;19.938;2022-10-15T06:32:53;11.95;;;8.20;;
21754;SDS011;11039;50.028;19.938;2022-10-15T06:35:20;11.68;;;7.95;;
21754;SDS011;11039;50.028;19.938;2022-10-15T06:37:47;11.73;;;8.27;;
21754;SDS011;11039;50.028;19.938;2022-10-15T06:40:13;11.65;;;7.63;;
21754;SDS011;11039;50.028;19.938;2022-10-15T06:42:40;11.43;;;8.05;;
21754;SDS011;11039;50.028;19.938;2022-10-15T06:45:06;11.63;;;8.00;;
21754;SDS011;11039;50.028;19.938;2022-10-15T06:47:34;10.07;;;7.65;;
21754;SDS011;11039;50.028;19.938;2022-10-15T06:50:01;10.77;;;7.72;;
21754;SDS011;11039;50.028;19.938;2022-10-15T06:52:29;13.02;;;8.18;;
21754;SDS011;11039;50.028;19.938;2022-10-15T06:54:55;10.68;;;7.70;;
21754;SDS011;11039;50.028;19.938;2022-10-15T06:57:21;11.30;;;7.88;;
21754;SDS011;11039;50.028;19.938;2022-10-15T06:59:49;12.40;;;7.82;;
21754;SDS011;11039;50.028;19.938;2022-10-15T07:02:15;12.73;;;8.70;;
21754;SDS011;11039;50.028;19.938;2022-10-15T07:04:43;11.57;;;7.95;;
21754;SDS011;11039;50.028;19.938;2022-10-15T07:07:09;9.77;;;7.50;;
21754;SDS011;11039;50.028;19.938;2022-10-15T07:09:35;11.05;;;7.72;;
21754;SDS011;11039;50.028;19.938;2022-10-15T07:12:01;11.68;;;8.05;;
21754;SDS011;11039;50.028;19.938;2022-10-15T07:14:27;12.25;;;7.82;;
21754;SDS011;11039;50.028;19.938;2022-10-15T07:16:53;10.85;;;8.02;;
21754;SDS011;11039;50.028;19.938;2022-10-15T07:19:19;11.02;;;7.43;;
21754;SDS011;11039;50.028;19.938;2022-10-15T07:21:46;10.80;;;8.07;;
21754;SDS011;11039;50.028;19.938;2022-10-15T07:24:12;11.02;;;7.60;;
21754;SDS011;11039;50.028;19.938;2022-10-15T07:26:38;10.18;;;7.60;;
21754;SDS011;11039;50.028;19.938;2022-10-15T07:29:04;11.70;;;7.85;;
21754;SDS011;11039;50.028;19.938;2022-10-15T07:31:30;12.95;;;7.35;;
21754;SDS011;11039;50.028;19.938;2022-10-15T07:33:56;10.48;;;7.57;;
21754;SDS011;11039;50.028;19.938;2022-10-15T07:36:23;12.40;;;7.65;;
21754;SDS011;11039;50.028;19.938;2022-10-15T07:38:49;9.98;;;7.30;;
21754;SDS011;11039;50.028;19.938;2022-10-15T07:41:16;10.45;;;7.50;;
21754;SDS011;11039;50.028;19.938;2022-10-15T07:43:42;9.85;;;7.18;;
21754;SDS011;11039;50.028;19.938;2022-10-15T07:46:08;11.60;;;7.35;;
21754;SDS011;11039;50.028;19.938;2022-10-15T07:48:34;11.60;;;7.82;;
21754;SDS011;11039;50.028;19.938;2022-10-15T07:51:01;9.75;;;7.65;;
21754;SDS011;11039;50.028;19.938;2022-10-15T07:53:28;10.02;;;7.10;;
21754;SDS011;11039;50.028;19.938;2022-10-15T07:55:58;9.60;;;7.55;;
21754;SDS011;11039;50.028;19.938;2022-10-15T07:58:25;11.88;;;7.65;;
21754;SDS011;11039;50.028;19.938;2022-10-15T08:00:51;12.20;;;6.95;;
21754;SDS011;11039;50.028;19.938;2022-10-15T08:03:17;11.55;;;7.82;;
21754;SDS011;11039;50.028;19.938;2022-10-15T08:05:43;11.98;;;7.25;;
21754;SDS011;11039;50.028;19.938;2022-10-15T08:08:09;12.13;;;7.32;;
21754;SDS011;11039;50.028;19.938;2022-10-15T08:10:35;9.75;;;7.18;;
21754;SDS011;11039;50.028;19.938;2022-10-15T08:13:01;11.75;;;7.68;;
21754;SDS011;11039;50.028;19.938;2022-10-15T08:15:27;9.45;;;6.60;;
21754;SDS011;11039;50.028;19.938;2022-10-15T08:17:53;10.00;;;7.30;;
21754;SDS011;11039;50.028;19.938;2022-10-15T08:20:19;9.30;;;7.18;;
21754;SDS011;11039;50.028;19.938;2022-10-15T08:22:45;10.40;;;7.43;;
21754;SDS011;11039;50.028;19.938;2022-10-15T08:25:11;9.73;;;7.20;;
21754;SDS011;11039;50.028;19.938;2022-10-15T08:27:37;10.15;;;7.55;;
21754;SDS011;11039;50.028;19.938;2022-10-15T08:30:03;10.23;;;7.50;;
21754;SDS011;11039;50.028;19.938;2022-10-15T08:32:30;10.55;;;6.95;;
21754;SDS011;11039;50.028;19.938;2022-10-15T08:34:56;10.90;;;7.55;;
21754;SDS011;11039;50.028;19.938;2022-10-15T08:37:22;9.63;;;6.60;;
21754;SDS011;11039;50.028;19.938;2022-10-15T08:39:48;9.50;;;6.82;;
21754;SDS011;11039;50.028;19.938;2022-10-15T08:42:30;10.35;;;7.05;;
21754;SDS011;11039;50.028;19.938;2022-10-15T08:44:57;12.13;;;7.47;;
21754;SDS011;11039;50.028;19.938;2022-10-15T08:49:53;9.55;;;7.18;;
21754;SDS011;11039;50.028;19.938;2022-10-15T08:54:49;9.27;;;7.20;;
21754;SDS011;11039;50.028;19.938;2022-10-15T08:57:17;9.68;;;7.05;;
21754;SDS011;11039;50.028;19.938;2022-10-15T08:59:53;11.15;;;7.45;;
21754;SDS011;11039;50.028;19.938;2022-10-15T09:02:34;12.55;;;7.20;;
21754;SDS011;11039;50.028;19.938;2022-10-15T09:07:43;10.93;;;7.18;;
21754;SDS011;11039;50.028;19.938;2022-10-15T09:12:47;10.50;;;7.47;;
21754;SDS011;11039;50.028;19.938;2022-10-15T09:15:16;9.82;;;7.13;;
21754;SDS011;11039;50.028;19.938;2022-10-15T09:17:43;10.63;;;7.30;;
21754;SDS011;11039;50.028;19.938;2022-10-15T09:20:15;11.48;;;6.97;;
21754;SDS011;11039;50.028;19.938;2022-10-15T09:22:42;10.27;;;6.95;;
21754;SDS011;11039;50.028;19.938;2022-10-15T09:25:14;12.55;;;6.70;;
21754;SDS011;11039;50.028;19.938;2022-10-15T09:27:40;10.93;;;7.38;;
21754;SDS011;11039;50.028;19.938;2022-10-15T09:30:27;9.93;;;6.93;;
21754;SDS011;11039;50.028;19.938;2022-10-15T09:35:50;11.45;;;6.95;;
21754;SDS011;11039;50.028;19.938;2022-10-15T09:43:22;8.82;;;6.68;;
21754;SDS011;11039;50.028;19.938;2022-10-15T09:45:52;9.65;;;6.63;;
21754;SDS011;11039;50.028;19.938;2022-10-15T09:48:18;11.18;;;7.18;;
21754;SDS011;11039;50.028;19.938;2022-10-15T09:50:47;9.82;;;7.15;;
21754;SDS011;11039;50.028;19.938;2022-10-15T09:56:20;10.07;;;6.78;;
21754;SDS011;11039;50.028;19.938;2022-10-15T09:58:52;10.00;;;6.63;;
21754;SDS011;11039;50.028;19.938;2022-10-15T10:01:26;9.30;;;7.00;;
21754;SDS011;11039;50.028;19.938;2022-10-15T10:03:53;11.73;;;7.15;;
21754;SDS011;11039;50.028;19.938;2022-10-15T10:06:20;10.60;;;7.65;;
21754;SDS011;11039;50.028;19.938;2022-10-15T10:08:49;10.48;;;7.43;;
21754;SDS011;11039;50.028;19.938;2022-10-15T10:11:16;9.52;;;6.90;;
21754;SDS011;11039;50.028;19.938;2022-10-15T10:13:55;10.27;;;6.97;;
21754;SDS011;11039;50.028;19.938;2022-10-15T10:16:22;9.38;;;6.88;;
21754;SDS011;11039;50.028;19.938;2022-10-15T10:21:50;9.60;;;7.32;;
21754;SDS011;11039;50.028;19.938;2022-10-15T10:24:30;12.65;;;6.90;;
21754;SDS011;11039;50.028;19.938;2022-10-15T10:26:58;9.20;;;7.00;;
21754;SDS011;11039;50.028;19.938;2022-10-15T10:29:25;11.65;;;7.45;;
21754;SDS011;11039;50.028;19.938;2022-10-15T10:31:52;10.05;;;6.63;;
21754;SDS011;11039;50.028;19.938;2022-10-15T10:34:25;10.35;;;6.60;;
21754;SDS011;11039;50.028;19.938;2022-10-15T10:36:52;9.98;;;7.45;;
21754;SDS011;11039;50.028;19.938;2022-10-15T10:39:25;10.85;;;7.10;;
21754;SDS011;11039;50.028;19.938;2022-10-15T10:41:53;9.60;;;6.78;;
21754;SDS011;11039;50.028;19.938;2022-10-15T10:47:28;12.27;;;6.93;;
21754;SDS011;11039;50.028;19.938;2022-10-15T10:49:37;9.98;;;7.78;;
21754;SDS011;11039;50.028;19.938;2022-10-15T10:52:04;9.90;;;7.20;;
21754;SDS011;11039;50.028;19.938;2022-10-15T10:54:30;10.13;;;6.95;;
21754;SDS011;11039;50.028;19.938;2022-10-15T10:56:58;9.60;;;6.90;;
21754;SDS011;11039;50.028;19.938;2022-10-15T10:59:35;8.40;;;6.60;;
21754;SDS011;11039;50.028;19.938;2022-10-15T11:02:02;10.07;;;6.88;;
21754;SDS011;11039;50.028;19.938;2022-10-15T11:04:33;9.35;;;7.05;;
21754;SDS011;11039;50.028;19.938;2022-10-15T11:07:04;11.45;;;7.25;;
21754;SDS011;11039;50.028;19.938;2022-10-15T11:17:06;13.38;;;6.63;;
21754;SDS011;11039;50.028;19.938;2022-10-15T11:19:37;16.38;;;6.68;;
21754;SDS011;11039;50.028;19.938;2022-10-15T11:24:45;11.02;;;6.60;;
21754;SDS011;11039;50.028;19.938;2022-10-15T11:27:38;12.48;;;6.80;;
21754;SDS011;11039;50.028;19.938;2022-10-15T11:30:25;11.13;;;7.03;;
21754;SDS011;11039;50.028;19.938;2022-10-15T11:46:02;10.38;;;6.35;;
21754;SDS011;11039;50.028;19.938;2022-10-15T11:54:09;10.00;;;6.32;;
21754;SDS011;11039;50.028;19.938;2022-10-15T11:56:38;9.07;;;6.15;;
21754;SDS011;11039;50.028;19.938;2022-10-15T12:04:49;13.18;;;6.65;;
21754;SDS011;11039;50.028;19.938;2022-10-15T12:07:25;11.23;;;6.18;;
21754;SDS011;11039;50.028;19.938;2022-10-15T12:09:56;8.90;;;5.82;;
21754;SDS011;11039;50.028;19.938;2022-10-15T12:12:27;9.18;;;6.68;;
21754;SDS011;11039;50.028;19.938;2022-10-15T12:20:05;8.38;;;6.10;;
21754;SDS011;11039;50.028;19.938;2022-10-15T12:22:33;8.77;;;5.90;;
21754;SDS011;11039;50.028;19.938;2022-10-15T12:24:59;8.50;;;6.15;;
21754;SDS011;11039;50.028;19.938;2022-10-15T12:27:29;9.07;;;6.05;;
21754;SDS011;11039;50.028;19.938;2022-10-15T12:32:25;10.02;;;6.60;;
21754;SDS011;11039;50.028;19.938;2022-10-15T12:34:58;9.90;;;6.32;;
21754;SDS011;11039;50.028;19.938;2022-10-15T12:37:25;8.80;;;5.97;;
21754;SDS011;11039;50.028;19.938;2022-10-15T12:40:05;8.10;;;5.90;;
21754;SDS011;11039;50.028;19.938;2022-10-15T12:45:23;8.60;;;6.40;;
21754;SDS011;11039;50.028;19.938;2022-10-15T12:47:53;12.40;;;6.40;;
21754;SDS011;11039;50.028;19.938;2022-10-15T12:50:23;8.45;;;6.20;;
21754;SDS011;11039;50.028;19.938;2022-10-15T12:52:57;8.32;;;5.82;;
21754;SDS011;11039;50.028;19.938;2022-10-15T12:57:54;10.68;;;6.22;;
21754;SDS011;11039;50.028;19.938;2022-10-15T13:02:53;11.40;;;6.80;;
21754;SDS011;11039;50.028;19.938;2022-10-15T13:05:24;12.18;;;6.63;;
21754;SDS011;11039;50.028;19.938;2022-10-15T13:07:51;11.90;;;6.75;;
21754;SDS011;11039;50.028;19.938;2022-10-15T13:10:19;13.23;;;6.40;;
21754;SDS011;11039;50.028;19.938;2022-10-15T13:12:50;8.85;;;6.70;;
21754;SDS011;11039;50.028;19.938;2022-10-15T13:15:17;11.98;;;6.93;;
21754;SDS011;11039;50.028;19.938;2022-10-15T13:17:43;12.40;;;7.40;;
21754;SDS011;11039;50.028;19.938;2022-10-15T13:20:24;10.02;;;6.70;;
21754;SDS011;11039;50.028;19.938;2022-10-15T13:22:52;10.32;;;6.90;;
21754;SDS011;11039;50.028;19.938;2022-10-15T13:25:18;11.45;;;7.20;;
21754;SDS011;11039;50.028;19.938;2022-10-15T13:27:44;9.15;;;6.03;;
21754;SDS011;11039;50.028;19.938;2022-10-15T13:30:12;10.57;;;6.20;;
21754;SDS011;11039;50.028;19.938;2022-10-15T13:35:11;11.00;;;6.10;;
21754;SDS011;11039;50.028;19.938;2022-10-15T13:37:38;8.55;;;5.93;;
21754;SDS011;11039;50.028;19.938;2022-10-15T13:40:05;8.27;;;5.32;;
21754;SDS011;11039;50.028;19.938;2022-10-15T13:42:32;7.93;;;5.70;;
21754;SDS011;11039;50.028;19.938;2022-10-15T13:47:35;10.05;;;5.72;;
21754;SDS011;11039;50.028;19.938;2022-10-15T13:52:48;8.52;;;5.35;;
21754;SDS011;11039;50.028;19.938;2022-10-15T13:55:16;8.60;;;5.78;;
21754;SDS011;11039;50.028;19.938;2022-10-15T13:57:43;8.52;;;5.32;;
21754;SDS011;11039;50.028;19.938;2022-10-15T14:03:06;7.40;;;4.70;;
21754;SDS011;11039;50.028;19.938;2022-10-15T14:05:32;8.75;;;5.25;;
21754;SDS011;11039;50.028;19.938;2022-10-15T14:07:59;7.32;;;5.15;;
21754;SDS011;11039;50.028;19.938;2022-10-15T14:10:25;7.30;;;4.78;;
21754;SDS011;11039;50.028;19.938;2022-10-15T14:12:51;8.68;;;5.25;;
21754;SDS011;11039;50.028;19.938;2022-10-15T14:18:34;8.27;;;4.78;;
21754;SDS011;11039;50.028;19.938;2022-10-15T14:21:11;6.97;;;4.90;;
21754;SDS011;11039;50.028;19.938;2022-10-15T14:26:46;8.20;;;4.93;;
21754;SDS011;11039;50.028;19.938;2022-10-15T14:29:55;7.20;;;4.88;;
21754;SDS011;11039;50.028;19.938;2022-10-15T14:32:02;7.07;;;4.65;;
21754;SDS011;11039;50.028;19.938;2022-10-15T14:34:41;8.38;;;4.65;;
21754;SDS011;11039;50.028;19.938;2022-10-15T14:37:27;9.00;;;5.15;;
21754;SDS011;11039;50.028;19.938;2022-10-15T14:47:52;7.13;;;4.63;;
21754;SDS011;11039;50.028;19.938;2022-10-15T14:50:19;6.03;;;4.75;;
21754;SDS011;11039;50.028;19.938;2022-10-15T14:52:46;8.40;;;4.63;;
21754;SDS011;11039;50.028;19.938;2022-10-15T14:55:14;8.43;;;4.80;;
21754;SDS011;11039;50.028;19.938;2022-10-15T14:57:41;7.82;;;4.88;;
21754;SDS011;11039;50.028;19.938;2022-10-15T15:00:21;9.80;;;4.85;;
21754;SDS011;11039;50.028;19.938;2022-10-15T15:02:48;9.82;;;5.15;;
21754;SDS011;11039;50.028;19.938;2022-10-15T15:05:21;11.82;;;5.63;;
21754;SDS011;11039;50.028;19.938;2022-10-15T15:07:48;7.32;;;5.18;;
21754;SDS011;11039;50.028;19.938;2022-10-15T15:10:14;8.73;;;5.43;;
21754;SDS011;11039;50.028;19.938;2022-10-15T15:12:41;14.60;;;5.32;;
21754;SDS011;11039;50.028;19.938;2022-10-15T15:15:14;8.13;;;5.43;;
21754;SDS011;11039;50.028;19.938;2022-10-15T15:17:41;9.57;;;5.40;;
21754;SDS011;11039;50.028;19.938;2022-10-15T15:20:08;9.07;;;5.65;;
21754;SDS011;11039;50.028;19.938;2022-10-15T15:22:34;9.60;;;5.60;;
21754;SDS011;11039;50.028;19.938;2022-10-15T15:25:02;10.68;;;6.10;;
21754;SDS011;11039;50.028;19.938;2022-10-15T15:27:29;8.00;;;5.35;;
21754;SDS011;11039;50.028;19.938;2022-10-15T15:29:55;9.63;;;5.60;;
21754;SDS011;11039;50.028;19.938;2022-10-15T15:32:22;9.52;;;5.38;;
21754;SDS011;11039;50.028;19.938;2022-10-15T15:34:49;11.48;;;6.25;;
21754;SDS011;11039;50.028;19.938;2022-10-15T15:37:20;11.45;;;6.47;;
21754;SDS011;11039;50.028;19.938;2022-10-15T15:39:47;12.07;;;6.82;;
21754;SDS011;11039;50.028;19.938;2022-10-15T15:42:13;9.02;;;5.82;;
21754;SDS011;11039;50.028;19.938;2022-10-15T15:44:40;8.50;;;5.93;;
21754;SDS011;11039;50.028;19.938;2022-10-15T15:47:06;10.20;;;6.57;;
21754;SDS011;11039;50.028;19.938;2022-10-15T15:49:33;10.75;;;6.45;;
21754;SDS011;11039;50.028;19.938;2022-10-15T15:51:59;11.48;;;6.68;;
21754;SDS011;11039;50.028;19.938;2022-10-15T15:54:26;11.30;;;6.20;;
21754;SDS011;11039;50.028;19.938;2022-10-15T15:56:52;9.98;;;5.97;;
21754;SDS011;11039;50.028;19.938;2022-10-15T15:59:18;9.90;;;6.57;;
21754;SDS011;11039;50.028;19.938;2022-10-15T16:01:44;10.05;;;6.45;;
21754;SDS011;11039;50.028;19.938;2022-10-15T16:04:11;11.15;;;6.55;;
21754;SDS011;11039;50.028;19.938;2022-10-15T16:06:37;11.50;;;6.68;;
21754;SDS011;11039;50.028;19.938;2022-10-15T16:09:04;12.52;;;7.00;;
21754;SDS011;11039;50.028;19.938;2022-10-15T16:11:30;9.65;;;6.13;;
21754;SDS011;11039;50.028;19.938;2022-10-15T16:13:56;11.88;;;6.15;;
21754;SDS011;11039;50.028;19.938;2022-10-15T16:16:22;13.13;;;6.90;;
21754;SDS011;11039;50.028;19.938;2022-10-15T16:18:49;10.98;;;6.38;;
21754;SDS011;11039;50.028;19.938;2022-10-15T16:21:21;10.38;;;6.28;;
21754;SDS011;11039;50.028;19.938;2022-10-15T16:23:47;13.57;;;6.80;;
21754;SDS011;11039;50.028;19.938;2022-10-15T16:26:13;11.57;;;6.50;;
21754;SDS011;11039;50.028;19.938;2022-10-15T16:28:40;9.52;;;6.05;;
21754;SDS011;11039;50.028;19.938;2022-10-15T16:33:39;9.73;;;6.32;;
21754;SDS011;11039;50.028;19.938;2022-10-15T16:36:05;13.05;;;6.65;;
21754;SDS011;11039;50.028;19.938;2022-10-15T16:38:31;9.25;;;5.82;;